sensor_id;sensor_type;location;lat;lon;timestamp;temperature;humidity
12885;DHT22;6510;51.362;7.370;2022-08-19T00:00:28;18.20;99.90
12885;DHT22;6510;51.362;7.370;2022-08-19T00:02:54;18.20;99.90
12885;DHT22;6510;51.362;7.370;2022-08-19T00:05:21;18.20;99.90
12885;DHT22;6510;51.362;7.370;2022-08-19T00:07:49;18.20;99.90
12885;DHT22;6510;51.362;7.370;2022-08-19T00:10:16;18.20;99.90
12885;DHT22;6510;51.362;7.370;2022-08-19T00:12:42;18.20;99.90
12885;DHT22;6510;51.362;7.370;2022-08-19T00:15:10;18.20;99.90
12885;DHT22;6510;51.362;7.370;2022-08-19T00:17:37;18.20;99.90
12885;DHT22;6510;51.362;7.370;2022-08-19T00:20:03;18.10;99.90
12885;DHT22;6510;51.362;7.370;2022-08-19T00:22:29;17.90;99.90
12885;DHT22;6510;51.362;7.370;2022-08-19T00:24:55;17.70;99.90
12885;DHT22;6510;51.362;7.370;2022-08-19T00:27:20;17.60;99.90
12885;DHT22;6510;51.362;7.370;2022-08-19T00:29:46;17.50;99.90
12885;DHT22;6510;51.362;7.370;2022-08-19T00:32:12;17.40;99.90
12885;DHT22;6510;51.362;7.370;2022-08-19T00:34:37;17.40;99.90
12885;DHT22;6510;51.362;7.370;2022-08-19T00:37:03;17.30;99.90
12885;DHT22;6510;51.362;7.370;2022-08-19T00:39:29;17.30;99.90
12885;DHT22;6510;51.362;7.370;2022-08-19T00:41:55;17.20;99.90
12885;DHT22;6510;51.362;7.370;2022-08-19T00:44:25;17.20;99.90
12885;DHT22;6510;51.362;7.370;2022-08-19T00:46:53;17.10;99.90
12885;DHT22;6510;51.362;7.370;2022-08-19T00:52:52;17.20;99.90
12885;DHT22;6510;51.362;7.370;2022-08-19T00:55:20;17.30;99.90
12885;DHT22;6510;51.362;7.370;2022-08-19T00:57:52;17.20;99.90
12885;DHT22;6510;51.362;7.370;2022-08-19T01:00:20;17.30;99.90
12885;DHT22;6510;51.362;7.370;2022-08-19T01:02:46;17.20;99.90
12885;DHT22;6510;51.362;7.370;2022-08-19T01:05:15;17.20;99.90
12885;DHT22;6510;51.362;7.370;2022-08-19T01:07:41;17.20;99.90
12885;DHT22;6510;51.362;7.370;2022-08-19T01:10:11;17.10;99.90
12885;DHT22;6510;51.362;7.370;2022-08-19T01:12:38;17.10;99.90
12885;DHT22;6510;51.362;7.370;2022-08-19T01:15:07;17.10;99.90
12885;DHT22;6510;51.362;7.370;2022-08-19T01:17:35;17.30;99.90
12885;DHT22;6510;51.362;7.370;2022-08-19T01:20:04;17.40;99.90
12885;DHT22;6510;51.362;7.370;2022-08-19T01:25:01;17.10;99.90
12885;DHT22;6510;51.362;7.370;2022-08-19T01:27:35;16.90;99.90
12885;DHT22;6510;51.362;7.370;2022-08-19T01:30:04;16.90;99.90
12885;DHT22;6510;51.362;7.370;2022-08-19T01:32:31;16.90;99.90
12885;DHT22;6510;51.362;7.370;2022-08-19T01:34:56;17.10;99.90
12885;DHT22;6510;51.362;7.370;2022-08-19T01:37:22;17.30;99.90
12885;DHT22;6510;51.362;7.370;2022-08-19T01:39:57;17.30;99.90
12885;DHT22;6510;51.362;7.370;2022-08-19T01:42:22;17.10;99.90
12885;DHT22;6510;51.362;7.370;2022-08-19T01:44:48;17.00;99.90
12885;DHT22;6510;51.362;7.370;2022-08-19T01:47:14;17.00;99.90
12885;DHT22;6510;51.362;7.370;2022-08-19T01:49:40;17.00;99.90
12885;DHT22;6510;51.362;7.370;2022-08-19T01:52:06;16.90;99.90
12885;DHT22;6510;51.362;7.370;2022-08-19T01:54:32;16.90;99.90
12885;DHT22;6510;51.362;7.370;2022-08-19T01:57:02;16.80;99.90
12885;DHT22;6510;51.362;7.370;2022-08-19T01:59:29;16.90;99.90
12885;DHT22;6510;51.362;7.370;2022-08-19T02:01:56;17.00;99.90
12885;DHT22;6510;51.362;7.370;2022-08-19T02:04:21;17.00;99.90
12885;DHT22;6510;51.362;7.370;2022-08-19T02:06:48;16.90;99.90
12885;DHT22;6510;51.362;7.370;2022-08-19T02:09:14;17.00;99.90
12885;DHT22;6510;51.362;7.370;2022-08-19T02:11:41;17.10;99.90
12885;DHT22;6510;51.362;7.370;2022-08-19T02:14:08;17.20;99.90
12885;DHT22;6510;51.362;7.370;2022-08-19T02:16:35;17.10;99.90
12885;DHT22;6510;51.362;7.370;2022-08-19T02:19:02;17.10;99.90
12885;DHT22;6510;51.362;7.370;2022-08-19T02:21:29;17.10;99.90
12885;DHT22;6510;51.362;7.370;2022-08-19T02:23:55;17.00;99.90
12885;DHT22;6510;51.362;7.370;2022-08-19T02:26:22;16.90;99.90
12885;DHT22;6510;51.362;7.370;2022-08-19T02:28:47;16.80;99.90
12885;DHT22;6510;51.362;7.370;2022-08-19T02:31:18;16.70;99.90
12885;DHT22;6510;51.362;7.370;2022-08-19T02:33:44;16.70;99.90
12885;DHT22;6510;51.362;7.370;2022-08-19T02:36:11;16.70;99.90
12885;DHT22;6510;51.362;7.370;2022-08-19T02:38:38;16.50;99.90
12885;DHT22;6510;51.362;7.370;2022-08-19T02:41:11;16.50;99.90
12885;DHT22;6510;51.362;7.370;2022-08-19T02:43:37;16.50;99.90
12885;DHT22;6510;51.362;7.370;2022-08-19T02:46:17;16.40;99.90
12885;DHT22;6510;51.362;7.370;2022-08-19T02:48:50;16.40;99.90
12885;DHT22;6510;51.362;7.370;2022-08-19T02:51:19;16.40;99.90
12885;DHT22;6510;51.362;7.370;2022-08-19T02:53:45;16.30;99.90
12885;DHT22;6510;51.362;7.370;2022-08-19T02:56:11;16.40;99.90
12885;DHT22;6510;51.362;7.370;2022-08-19T02:58:37;16.40;99.90
12885;DHT22;6510;51.362;7.370;2022-08-19T03:01:02;16.40;99.90
12885;DHT22;6510;51.362;7.370;2022-08-19T03:03:28;16.50;99.90
12885;DHT22;6510;51.362;7.370;2022-08-19T03:06:10;16.50;99.90
12885;DHT22;6510;51.362;7.370;2022-08-19T03:08:42;16.50;99.90
12885;DHT22;6510;51.362;7.370;2022-08-19T03:13:41;16.40;99.90
12885;DHT22;6510;51.362;7.370;2022-08-19T03:16:09;16.50;99.90
12885;DHT22;6510;51.362;7.370;2022-08-19T03:18:35;16.60;99.90
12885;DHT22;6510;51.362;7.370;2022-08-19T03:21:01;16.70;99.90
12885;DHT22;6510;51.362;7.370;2022-08-19T03:23:27;16.70;99.90
12885;DHT22;6510;51.362;7.370;2022-08-19T03:25:53;16.70;99.90
12885;DHT22;6510;51.362;7.370;2022-08-19T03:28:20;16.70;99.90
12885;DHT22;6510;51.362;7.370;2022-08-19T03:31:02;16.60;99.90
12885;DHT22;6510;51.362;7.370;2022-08-19T03:33:29;16.60;99.90
12885;DHT22;6510;51.362;7.370;2022-08-19T03:38:39;16.50;99.90
12885;DHT22;6510;51.362;7.370;2022-08-19T03:41:07;16.50;99.90
12885;DHT22;6510;51.362;7.370;2022-08-19T03:43:36;16.50;99.90
12885;DHT22;6510;51.362;7.370;2022-08-19T03:46:08;16.50;99.90
12885;DHT22;6510;51.362;7.370;2022-08-19T03:48:35;16.50;99.90
12885;DHT22;6510;51.362;7.370;2022-08-19T03:51:01;16.50;99.90
12885;DHT22;6510;51.362;7.370;2022-08-19T03:53:28;16.50;99.90
12885;DHT22;6510;51.362;7.370;2022-08-19T03:55:55;16.50;99.90
12885;DHT22;6510;51.362;7.370;2022-08-19T03:58:21;16.50;99.90
12885;DHT22;6510;51.362;7.370;2022-08-19T04:00:47;16.50;99.90
12885;DHT22;6510;51.362;7.370;2022-08-19T04:03:12;16.40;99.90
12885;DHT22;6510;51.362;7.370;2022-08-19T04:05:38;16.40;99.90
12885;DHT22;6510;51.362;7.370;2022-08-19T04:08:04;16.30;99.90
12885;DHT22;6510;51.362;7.370;2022-08-19T04:10:37;16.30;99.90
12885;DHT22;6510;51.362;7.370;2022-08-19T04:13:04;16.20;99.90
12885;DHT22;6510;51.362;7.370;2022-08-19T04:15:31;16.20;99.90
12885;DHT22;6510;51.362;7.370;2022-08-19T04:18:01;16.30;99.90
12885;DHT22;6510;51.362;7.370;2022-08-19T04:20:27;16.30;99.90
12885;DHT22;6510;51.362;7.370;2022-08-19T04:22:53;16.30;99.90
12885;DHT22;6510;51.362;7.370;2022-08-19T04:25:18;16.30;99.90
12885;DHT22;6510;51.362;7.370;2022-08-19T04:28:05;16.40;99.90
12885;DHT22;6510;51.362;7.370;2022-08-19T04:30:38;16.40;99.90
12885;DHT22;6510;51.362;7.370;2022-08-19T04:33:04;16.30;99.90
12885;DHT22;6510;51.362;7.370;2022-08-19T04:35:38;16.40;99.90
12885;DHT22;6510;51.362;7.370;2022-08-19T04:38:05;16.40;99.90
12885;DHT22;6510;51.362;7.370;2022-08-19T04:40:33;16.40;99.90
12885;DHT22;6510;51.362;7.370;2022-08-19T04:43:17;16.50;99.90
12885;DHT22;6510;51.362;7.370;2022-08-19T04:48:49;16.50;99.90
12885;DHT22;6510;51.362;7.370;2022-08-19T04:51:15;16.50;99.90
12885;DHT22;6510;51.362;7.370;2022-08-19T04:53:42;16.60;99.90
12885;DHT22;6510;51.362;7.370;2022-08-19T04:56:15;16.70;99.90
12885;DHT22;6510;51.362;7.370;2022-08-19T04:58:43;16.80;99.90
12885;DHT22;6510;51.362;7.370;2022-08-19T05:04:06;17.00;99.90
12885;DHT22;6510;51.362;7.370;2022-08-19T05:06:33;17.00;99.90
12885;DHT22;6510;51.362;7.370;2022-08-19T05:09:01;17.00;99.90
12885;DHT22;6510;51.362;7.370;2022-08-19T05:11:31;17.00;99.90
12885;DHT22;6510;51.362;7.370;2022-08-19T05:13:57;17.10;99.90
12885;DHT22;6510;51.362;7.370;2022-08-19T05:16:23;17.10;99.90
12885;DHT22;6510;51.362;7.370;2022-08-19T05:18:50;17.10;99.90
12885;DHT22;6510;51.362;7.370;2022-08-19T05:21:35;17.20;99.90
12885;DHT22;6510;51.362;7.370;2022-08-19T05:24:21;17.30;99.90
12885;DHT22;6510;51.362;7.370;2022-08-19T05:26:48;17.30;99.90
12885;DHT22;6510;51.362;7.370;2022-08-19T05:29:18;17.50;99.90
12885;DHT22;6510;51.362;7.370;2022-08-19T05:31:44;17.60;99.90
12885;DHT22;6510;51.362;7.370;2022-08-19T05:34:10;17.60;99.90
12885;DHT22;6510;51.362;7.370;2022-08-19T05:36:39;17.60;99.90
12885;DHT22;6510;51.362;7.370;2022-08-19T05:39:07;17.50;99.90
12885;DHT22;6510;51.362;7.370;2022-08-19T05:41:34;17.30;99.90
12885;DHT22;6510;51.362;7.370;2022-08-19T05:44:04;17.20;99.90
12885;DHT22;6510;51.362;7.370;2022-08-19T05:46:32;17.10;99.90
12885;DHT22;6510;51.362;7.370;2022-08-19T05:48:57;17.10;99.90
12885;DHT22;6510;51.362;7.370;2022-08-19T05:51:24;17.00;99.90
12885;DHT22;6510;51.362;7.370;2022-08-19T05:53:50;17.00;99.90
12885;DHT22;6510;51.362;7.370;2022-08-19T05:56:16;17.00;99.90
12885;DHT22;6510;51.362;7.370;2022-08-19T05:58:44;17.10;99.90
12885;DHT22;6510;51.362;7.370;2022-08-19T06:01:14;17.10;99.90
12885;DHT22;6510;51.362;7.370;2022-08-19T06:03:40;17.30;99.90
12885;DHT22;6510;51.362;7.370;2022-08-19T06:06:07;17.40;99.90
12885;DHT22;6510;51.362;7.370;2022-08-19T06:08:35;17.40;99.90
12885;DHT22;6510;51.362;7.370;2022-08-19T06:13:44;17.70;99.90
12885;DHT22;6510;51.362;7.370;2022-08-19T06:16:20;17.90;99.90
12885;DHT22;6510;51.362;7.370;2022-08-19T06:18:52;18.00;99.90
12885;DHT22;6510;51.362;7.370;2022-08-19T06:21:20;18.00;99.90
12885;DHT22;6510;51.362;7.370;2022-08-19T06:23:46;18.20;99.90
12885;DHT22;6510;51.362;7.370;2022-08-19T06:26:13;18.20;99.90
12885;DHT22;6510;51.362;7.370;2022-08-19T06:28:39;18.20;99.90
12885;DHT22;6510;51.362;7.370;2022-08-19T06:31:09;18.10;99.90
12885;DHT22;6510;51.362;7.370;2022-08-19T06:33:35;18.20;99.90
12885;DHT22;6510;51.362;7.370;2022-08-19T06:36:01;18.10;99.90
12885;DHT22;6510;51.362;7.370;2022-08-19T06:38:26;18.30;99.90
12885;DHT22;6510;51.362;7.370;2022-08-19T06:41:04;18.40;99.90
12885;DHT22;6510;51.362;7.370;2022-08-19T06:43:30;18.70;99.90
12885;DHT22;6510;51.362;7.370;2022-08-19T06:45:55;19.00;99.90
12885;DHT22;6510;51.362;7.370;2022-08-19T06:48:22;19.60;99.90
12885;DHT22;6510;51.362;7.370;2022-08-19T06:50:47;20.30;99.90
12885;DHT22;6510;51.362;7.370;2022-08-19T06:53:15;20.60;99.90
12885;DHT22;6510;51.362;7.370;2022-08-19T06:55:40;20.50;99.90
12885;DHT22;6510;51.362;7.370;2022-08-19T06:58:06;20.10;99.90
12885;DHT22;6510;51.362;7.370;2022-08-19T07:00:33;20.30;99.90
12885;DHT22;6510;51.362;7.370;2022-08-19T07:02:59;20.40;99.90
12885;DHT22;6510;51.362;7.370;2022-08-19T07:05:25;20.50;99.90
12885;DHT22;6510;51.362;7.370;2022-08-19T07:07:51;20.30;99.90
12885;DHT22;6510;51.362;7.370;2022-08-19T07:10:17;20.10;99.90
12885;DHT22;6510;51.362;7.370;2022-08-19T07:12:43;20.10;99.90
12885;DHT22;6510;51.362;7.370;2022-08-19T07:15:10;20.10;99.90
12885;DHT22;6510;51.362;7.370;2022-08-19T07:17:37;20.20;99.90
12885;DHT22;6510;51.362;7.370;2022-08-19T07:20:05;20.20;99.90
12885;DHT22;6510;51.362;7.370;2022-08-19T07:22:32;20.10;99.90
12885;DHT22;6510;51.362;7.370;2022-08-19T07:24:59;20.20;99.90
12885;DHT22;6510;51.362;7.370;2022-08-19T07:27:25;20.30;99.90
12885;DHT22;6510;51.362;7.370;2022-08-19T07:29:51;20.40;99.90
12885;DHT22;6510;51.362;7.370;2022-08-19T07:32:17;20.20;99.90
12885;DHT22;6510;51.362;7.370;2022-08-19T07:34:42;20.10;99.90
12885;DHT22;6510;51.362;7.370;2022-08-19T07:37:08;20.50;99.90
12885;DHT22;6510;51.362;7.370;2022-08-19T07:39:35;20.40;99.90
12885;DHT22;6510;51.362;7.370;2022-08-19T07:42:10;20.40;99.90
12885;DHT22;6510;51.362;7.370;2022-08-19T07:44:36;20.40;99.90
12885;DHT22;6510;51.362;7.370;2022-08-19T07:47:02;20.80;99.90
12885;DHT22;6510;51.362;7.370;2022-08-19T07:49:28;20.90;99.90
12885;DHT22;6510;51.362;7.370;2022-08-19T07:52:07;21.00;99.90
12885;DHT22;6510;51.362;7.370;2022-08-19T07:54:36;21.30;99.90
12885;DHT22;6510;51.362;7.370;2022-08-19T07:57:02;21.60;99.90
12885;DHT22;6510;51.362;7.370;2022-08-19T07:59:29;22.30;99.90
12885;DHT22;6510;51.362;7.370;2022-08-19T08:01:55;22.30;99.90
12885;DHT22;6510;51.362;7.370;2022-08-19T08:04:21;22.90;99.90
12885;DHT22;6510;51.362;7.370;2022-08-19T08:07:06;23.20;99.90
12885;DHT22;6510;51.362;7.370;2022-08-19T08:09:50;23.80;99.90
12885;DHT22;6510;51.362;7.370;2022-08-19T08:12:23;24.20;99.90
12885;DHT22;6510;51.362;7.370;2022-08-19T08:15:00;24.00;99.90
12885;DHT22;6510;51.362;7.370;2022-08-19T08:17:30;24.10;99.90
12885;DHT22;6510;51.362;7.370;2022-08-19T08:19:56;24.50;99.90
12885;DHT22;6510;51.362;7.370;2022-08-19T08:22:23;24.10;99.90
12885;DHT22;6510;51.362;7.370;2022-08-19T08:25:11;24.50;99.90
12885;DHT22;6510;51.362;7.370;2022-08-19T08:27:38;23.90;99.90
12885;DHT22;6510;51.362;7.370;2022-08-19T08:30:07;24.40;99.90
12885;DHT22;6510;51.362;7.370;2022-08-19T08:32:37;24.50;99.90
12885;DHT22;6510;51.362;7.370;2022-08-19T08:35:08;24.70;99.90
12885;DHT22;6510;51.362;7.370;2022-08-19T08:37:35;23.70;99.90
12885;DHT22;6510;51.362;7.370;2022-08-19T08:40:28;23.20;99.90
12885;DHT22;6510;51.362;7.370;2022-08-19T08:43:00;23.90;99.90
12885;DHT22;6510;51.362;7.370;2022-08-19T08:45:30;23.90;99.90
12885;DHT22;6510;51.362;7.370;2022-08-19T08:48:04;24.50;99.90
12885;DHT22;6510;51.362;7.370;2022-08-19T08:50:36;25.20;99.90
12885;DHT22;6510;51.362;7.370;2022-08-19T08:53:06;25.90;99.90
12885;DHT22;6510;51.362;7.370;2022-08-19T08:55:34;25.80;99.90
12885;DHT22;6510;51.362;7.370;2022-08-19T08:58:06;27.10;99.90
12885;DHT22;6510;51.362;7.370;2022-08-19T09:00:40;26.30;99.90
12885;DHT22;6510;51.362;7.370;2022-08-19T09:03:20;26.30;99.90
12885;DHT22;6510;51.362;7.370;2022-08-19T09:06:06;27.20;99.90
12885;DHT22;6510;51.362;7.370;2022-08-19T09:14:39;27.40;99.90
12885;DHT22;6510;51.362;7.370;2022-08-19T09:16:57;27.30;99.90
12885;DHT22;6510;51.362;7.370;2022-08-19T09:19:23;26.00;99.90
12885;DHT22;6510;51.362;7.370;2022-08-19T09:21:49;25.00;99.90
12885;DHT22;6510;51.362;7.370;2022-08-19T09:24:15;25.10;99.90
12885;DHT22;6510;51.362;7.370;2022-08-19T09:26:41;24.60;99.90
12885;DHT22;6510;51.362;7.370;2022-08-19T09:29:09;25.50;99.90
12885;DHT22;6510;51.362;7.370;2022-08-19T09:31:36;26.10;99.90
12885;DHT22;6510;51.362;7.370;2022-08-19T09:34:12;26.10;99.90
12885;DHT22;6510;51.362;7.370;2022-08-19T09:36:38;25.20;99.90
12885;DHT22;6510;51.362;7.370;2022-08-19T09:39:05;24.20;99.90
12885;DHT22;6510;51.362;7.370;2022-08-19T09:41:31;24.90;99.90
12885;DHT22;6510;51.362;7.370;2022-08-19T09:43:58;26.40;99.90
12885;DHT22;6510;51.362;7.370;2022-08-19T09:46:26;26.60;99.90
12885;DHT22;6510;51.362;7.370;2022-08-19T09:48:58;25.50;99.90
12885;DHT22;6510;51.362;7.370;2022-08-19T09:51:28;25.20;99.90
12885;DHT22;6510;51.362;7.370;2022-08-19T09:53:55;24.90;99.90
12885;DHT22;6510;51.362;7.370;2022-08-19T09:56:23;25.70;99.90
12885;DHT22;6510;51.362;7.370;2022-08-19T09:58:49;25.10;99.90
12885;DHT22;6510;51.362;7.370;2022-08-19T10:01:24;25.80;99.90
12885;DHT22;6510;51.362;7.370;2022-08-19T10:03:52;27.20;99.90
12885;DHT22;6510;51.362;7.370;2022-08-19T10:06:20;26.90;99.90
12885;DHT22;6510;51.362;7.370;2022-08-19T10:08:48;27.50;99.90
12885;DHT22;6510;51.362;7.370;2022-08-19T10:11:14;29.60;99.90
12885;DHT22;6510;51.362;7.370;2022-08-19T10:13:42;28.30;99.90
12885;DHT22;6510;51.362;7.370;2022-08-19T10:16:13;26.70;99.90
12885;DHT22;6510;51.362;7.370;2022-08-19T10:18:40;25.50;99.90
12885;DHT22;6510;51.362;7.370;2022-08-19T10:21:15;26.50;99.90
12885;DHT22;6510;51.362;7.370;2022-08-19T10:23:44;27.50;99.90
12885;DHT22;6510;51.362;7.370;2022-08-19T10:26:15;28.00;99.90
12885;DHT22;6510;51.362;7.370;2022-08-19T10:28:41;27.30;99.90
12885;DHT22;6510;51.362;7.370;2022-08-19T10:31:16;27.10;99.90
12885;DHT22;6510;51.362;7.370;2022-08-19T10:33:43;27.40;99.90
12885;DHT22;6510;51.362;7.370;2022-08-19T10:36:12;28.50;99.90
12885;DHT22;6510;51.362;7.370;2022-08-19T10:38:43;28.60;99.90
12885;DHT22;6510;51.362;7.370;2022-08-19T10:41:20;28.70;99.90
12885;DHT22;6510;51.362;7.370;2022-08-19T10:43:50;28.90;99.90
12885;DHT22;6510;51.362;7.370;2022-08-19T10:46:18;28.90;99.90
12885;DHT22;6510;51.362;7.370;2022-08-19T10:48:44;29.50;99.90
12885;DHT22;6510;51.362;7.370;2022-08-19T10:51:11;29.20;99.90
12885;DHT22;6510;51.362;7.370;2022-08-19T10:53:56;30.20;99.90
12885;DHT22;6510;51.362;7.370;2022-08-19T10:56:22;30.40;99.90
12885;DHT22;6510;51.362;7.370;2022-08-19T10:59:06;29.20;99.90
12885;DHT22;6510;51.362;7.370;2022-08-19T11:01:33;28.80;99.90
12885;DHT22;6510;51.362;7.370;2022-08-19T11:04:01;29.20;99.90
12885;DHT22;6510;51.362;7.370;2022-08-19T11:06:27;28.80;99.90
12885;DHT22;6510;51.362;7.370;2022-08-19T11:08:53;28.40;99.90
12885;DHT22;6510;51.362;7.370;2022-08-19T11:11:20;29.60;99.90
12885;DHT22;6510;51.362;7.370;2022-08-19T11:13:47;29.20;99.90
12885;DHT22;6510;51.362;7.370;2022-08-19T11:16:17;29.30;99.90
12885;DHT22;6510;51.362;7.370;2022-08-19T11:18:47;29.20;99.90
12885;DHT22;6510;51.362;7.370;2022-08-19T11:21:19;30.00;99.90
12885;DHT22;6510;51.362;7.370;2022-08-19T11:23:48;29.00;99.90
12885;DHT22;6510;51.362;7.370;2022-08-19T11:26:15;29.20;99.90
12885;DHT22;6510;51.362;7.370;2022-08-19T11:28:41;29.80;99.90
12885;DHT22;6510;51.362;7.370;2022-08-19T11:31:16;29.10;99.90
12885;DHT22;6510;51.362;7.370;2022-08-19T11:33:42;29.20;99.90
12885;DHT22;6510;51.362;7.370;2022-08-19T11:36:09;29.10;99.90
12885;DHT22;6510;51.362;7.370;2022-08-19T11:38:38;30.20;99.90
12885;DHT22;6510;51.362;7.370;2022-08-19T11:41:07;30.20;99.90
12885;DHT22;6510;51.362;7.370;2022-08-19T11:43:34;31.20;99.90
12885;DHT22;6510;51.362;7.370;2022-08-19T11:46:03;31.60;99.90
12885;DHT22;6510;51.362;7.370;2022-08-19T11:48:29;29.70;99.90
12885;DHT22;6510;51.362;7.370;2022-08-19T11:50:54;27.20;99.90
12885;DHT22;6510;51.362;7.370;2022-08-19T11:53:23;27.50;99.90
12885;DHT22;6510;51.362;7.370;2022-08-19T11:55:49;27.50;99.90
12885;DHT22;6510;51.362;7.370;2022-08-19T11:58:16;28.30;99.90
12885;DHT22;6510;51.362;7.370;2022-08-19T12:00:43;29.10;99.90
12885;DHT22;6510;51.362;7.370;2022-08-19T12:03:12;30.30;99.90
12885;DHT22;6510;51.362;7.370;2022-08-19T12:05:39;29.10;99.90
12885;DHT22;6510;51.362;7.370;2022-08-19T12:08:06;27.00;99.90
12885;DHT22;6510;51.362;7.370;2022-08-19T12:10:32;26.30;99.90
12885;DHT22;6510;51.362;7.370;2022-08-19T12:12:58;26.90;99.90
12885;DHT22;6510;51.362;7.370;2022-08-19T12:15:25;28.50;99.90
12885;DHT22;6510;51.362;7.370;2022-08-19T12:17:52;29.50;99.90
12885;DHT22;6510;51.362;7.370;2022-08-19T12:20:20;29.10;99.90
12885;DHT22;6510;51.362;7.370;2022-08-19T12:22:46;30.00;99.90
12885;DHT22;6510;51.362;7.370;2022-08-19T12:25:12;30.70;99.90
12885;DHT22;6510;51.362;7.370;2022-08-19T12:27:38;30.30;99.90
12885;DHT22;6510;51.362;7.370;2022-08-19T12:30:05;29.70;99.90
12885;DHT22;6510;51.362;7.370;2022-08-19T12:32:32;28.60;99.90
12885;DHT22;6510;51.362;7.370;2022-08-19T12:34:57;28.90;99.90
12885;DHT22;6510;51.362;7.370;2022-08-19T12:37:23;29.50;99.90
12885;DHT22;6510;51.362;7.370;2022-08-19T12:39:49;29.60;99.90
12885;DHT22;6510;51.362;7.370;2022-08-19T12:42:15;28.80;99.90
12885;DHT22;6510;51.362;7.370;2022-08-19T12:44:42;28.70;99.90
12885;DHT22;6510;51.362;7.370;2022-08-19T12:47:09;27.90;99.90
12885;DHT22;6510;51.362;7.370;2022-08-19T12:49:37;27.70;99.90
12885;DHT22;6510;51.362;7.370;2022-08-19T12:52:05;28.00;99.90
12885;DHT22;6510;51.362;7.370;2022-08-19T12:54:33;28.80;99.90
12885;DHT22;6510;51.362;7.370;2022-08-19T12:56:59;29.40;99.90
12885;DHT22;6510;51.362;7.370;2022-08-19T12:59:27;29.00;99.90
12885;DHT22;6510;51.362;7.370;2022-08-19T13:01:56;29.70;99.90
12885;DHT22;6510;51.362;7.370;2022-08-19T13:04:32;30.50;99.90
12885;DHT22;6510;51.362;7.370;2022-08-19T13:07:00;30.40;99.90
12885;DHT22;6510;51.362;7.370;2022-08-19T13:09:26;31.10;99.90
12885;DHT22;6510;51.362;7.370;2022-08-19T13:11:52;31.20;99.90
12885;DHT22;6510;51.362;7.370;2022-08-19T13:14:17;30.90;99.90
12885;DHT22;6510;51.362;7.370;2022-08-19T13:16:44;30.40;99.90
12885;DHT22;6510;51.362;7.370;2022-08-19T13:19:09;31.00;99.90
12885;DHT22;6510;51.362;7.370;2022-08-19T13:21:36;31.20;99.90
12885;DHT22;6510;51.362;7.370;2022-08-19T13:24:02;30.90;99.90
12885;DHT22;6510;51.362;7.370;2022-08-19T13:26:28;30.40;99.90
12885;DHT22;6510;51.362;7.370;2022-08-19T13:28:53;30.30;99.90
12885;DHT22;6510;51.362;7.370;2022-08-19T13:31:40;30.90;99.90
12885;DHT22;6510;51.362;7.370;2022-08-19T13:34:31;30.00;99.90
12885;DHT22;6510;51.362;7.370;2022-08-19T13:37:01;29.70;99.90
12885;DHT22;6510;51.362;7.370;2022-08-19T13:39:36;29.80;99.90
12885;DHT22;6510;51.362;7.370;2022-08-19T13:42:02;30.50;99.90
12885;DHT22;6510;51.362;7.370;2022-08-19T13:44:29;30.50;99.90
12885;DHT22;6510;51.362;7.370;2022-08-19T13:47:01;30.50;99.90
12885;DHT22;6510;51.362;7.370;2022-08-19T13:49:31;30.20;99.90
12885;DHT22;6510;51.362;7.370;2022-08-19T13:51:57;30.70;99.90
12885;DHT22;6510;51.362;7.370;2022-08-19T13:54:22;29.60;99.90
12885;DHT22;6510;51.362;7.370;2022-08-19T13:56:48;29.60;99.90
12885;DHT22;6510;51.362;7.370;2022-08-19T13:59:14;29.40;99.90
12885;DHT22;6510;51.362;7.370;2022-08-19T14:01:41;29.80;99.90
12885;DHT22;6510;51.362;7.370;2022-08-19T14:04:07;29.70;99.90
12885;DHT22;6510;51.362;7.370;2022-08-19T14:06:33;29.60;99.90
12885;DHT22;6510;51.362;7.370;2022-08-19T14:08:59;29.60;99.90
12885;DHT22;6510;51.362;7.370;2022-08-19T14:11:25;29.10;99.90
12885;DHT22;6510;51.362;7.370;2022-08-19T14:13:51;28.50;99.90
12885;DHT22;6510;51.362;7.370;2022-08-19T14:16:17;28.10;99.90
12885;DHT22;6510;51.362;7.370;2022-08-19T14:18:43;28.60;99.90
12885;DHT22;6510;51.362;7.370;2022-08-19T14:21:15;28.10;99.90
12885;DHT22;6510;51.362;7.370;2022-08-19T14:23:43;28.00;99.90
12885;DHT22;6510;51.362;7.370;2022-08-19T14:26:12;28.10;99.90
12885;DHT22;6510;51.362;7.370;2022-08-19T14:28:39;28.90;99.90
12885;DHT22;6510;51.362;7.370;2022-08-19T14:31:08;28.60;99.90
12885;DHT22;6510;51.362;7.370;2022-08-19T14:33:33;28.00;99.90
12885;DHT22;6510;51.362;7.370;2022-08-19T14:35:59;27.30;99.90
12885;DHT22;6510;51.362;7.370;2022-08-19T14:38:26;27.40;99.90
12885;DHT22;6510;51.362;7.370;2022-08-19T14:40:52;28.10;99.90
12885;DHT22;6510;51.362;7.370;2022-08-19T14:43:18;28.50;99.90
12885;DHT22;6510;51.362;7.370;2022-08-19T14:45:44;28.20;99.90
12885;DHT22;6510;51.362;7.370;2022-08-19T14:48:10;27.90;99.90
12885;DHT22;6510;51.362;7.370;2022-08-19T14:50:36;28.30;99.90
12885;DHT22;6510;51.362;7.370;2022-08-19T14:53:08;28.90;99.90
12885;DHT22;6510;51.362;7.370;2022-08-19T14:55:35;28.70;99.90
12885;DHT22;6510;51.362;7.370;2022-08-19T14:58:00;28.40;99.90
12885;DHT22;6510;51.362;7.370;2022-08-19T15:00:26;28.40;99.90
12885;DHT22;6510;51.362;7.370;2022-08-19T15:02:53;27.80;99.90
12885;DHT22;6510;51.362;7.370;2022-08-19T15:05:20;27.50;99.90
12885;DHT22;6510;51.362;7.370;2022-08-19T15:07:46;28.00;99.90
12885;DHT22;6510;51.362;7.370;2022-08-19T15:10:13;27.50;99.90
12885;DHT22;6510;51.362;7.370;2022-08-19T15:12:40;27.40;99.90
12885;DHT22;6510;51.362;7.370;2022-08-19T15:15:07;26.80;99.90
12885;DHT22;6510;51.362;7.370;2022-08-19T15:17:33;26.80;99.90
12885;DHT22;6510;51.362;7.370;2022-08-19T15:20:00;26.60;99.90
12885;DHT22;6510;51.362;7.370;2022-08-19T15:22:27;26.40;99.90
12885;DHT22;6510;51.362;7.370;2022-08-19T15:24:53;26.40;99.90
12885;DHT22;6510;51.362;7.370;2022-08-19T15:27:20;26.80;99.90
12885;DHT22;6510;51.362;7.370;2022-08-19T15:29:45;27.00;99.90
12885;DHT22;6510;51.362;7.370;2022-08-19T15:32:11;27.10;99.90
12885;DHT22;6510;51.362;7.370;2022-08-19T15:34:37;26.90;99.90
12885;DHT22;6510;51.362;7.370;2022-08-19T15:37:55;27.30;99.90
12885;DHT22;6510;51.362;7.370;2022-08-19T15:40:22;26.90;99.90
12885;DHT22;6510;51.362;7.370;2022-08-19T15:42:49;26.70;99.90
12885;DHT22;6510;51.362;7.370;2022-08-19T15:45:16;26.90;99.90
12885;DHT22;6510;51.362;7.370;2022-08-19T15:47:42;26.80;99.90
12885;DHT22;6510;51.362;7.370;2022-08-19T15:50:17;26.50;99.90
12885;DHT22;6510;51.362;7.370;2022-08-19T15:52:57;26.90;99.90
12885;DHT22;6510;51.362;7.370;2022-08-19T15:55:27;27.40;99.90
12885;DHT22;6510;51.362;7.370;2022-08-19T15:57:53;27.60;99.90
12885;DHT22;6510;51.362;7.370;2022-08-19T16:00:37;27.70;99.90
12885;DHT22;6510;51.362;7.370;2022-08-19T16:03:21;27.90;99.90
12885;DHT22;6510;51.362;7.370;2022-08-19T16:06:06;27.40;99.90
12885;DHT22;6510;51.362;7.370;2022-08-19T16:08:57;27.40;99.90
12885;DHT22;6510;51.362;7.370;2022-08-19T16:11:25;26.60;99.90
12885;DHT22;6510;51.362;7.370;2022-08-19T16:13:52;26.70;99.90
12885;DHT22;6510;51.362;7.370;2022-08-19T16:16:26;26.20;99.90
12885;DHT22;6510;51.362;7.370;2022-08-19T16:18:56;26.40;99.90